Strona główna
METAR-TAF:

METAR-TAF

Lotnisko :

Lake Argyle, Australia

Szerokość geograficzna: 16-38-13S, Długość geograficzna: 128-27-05E, wysokość: 159 m

Aktualna obserwacja pogody

Raport powstał 1 godzina i 9 minut temu, godzina 03:00 UTC
Wiatr 5 kt od wschód, zmienny między północ i południowy wschód
Temperatura 39°C
Wilgotność 21%
Ciśnienie 1009 hPa
Widzialność 10 km lub więcej

METAR: YARG 110300Z AUTO 09005KT 010V140 9999 // NCD 39/13 Q1009

czas: 12:09 (04:09 UTC)


TAF: brakujący

Obserwacja i prognoza pogody dla ponad 4000 lotnisk (raport METAR i TAF).

Dostępne stacje oznaczono żółtymi i czerwonymi punktami na mapie.

Najedź kursorem aby zobaczyć nazwę stacji.

Kliknij aby zobaczyć obserwacje i prognozy pogody.

Aby zmienić mapę: kliknij na zielony przycisk z czarnym krzyżykiem, aby powiększyć; na zielony przycisk z myślnikiem, aby pomniejszyć; na zielone strzałki, aby przejść do map sąsiednich.


METAR-TAF: